createdAt,value
2022-11-24T00:02:19.910Z,4.08
2022-11-24T00:05:21.337Z,4.08
2022-11-24T00:08:22.701Z,4.09
2022-11-24T00:11:27.106Z,4.07
2022-11-24T00:14:28.453Z,4.07
2022-11-24T00:17:29.782Z,4.05
2022-11-24T00:20:31.121Z,4.05
2022-11-24T00:23:32.982Z,4.06
2022-11-24T00:26:35.903Z,4.06
2022-11-24T00:29:37.583Z,4.03
2022-11-24T00:32:38.927Z,4.04
2022-11-24T00:35:40.254Z,4.05
2022-11-24T00:38:41.670Z,4.05
2022-11-24T00:41:43.225Z,4.07
2022-11-24T00:44:44.574Z,4.05
2022-11-24T00:47:45.928Z,4.05
2022-11-24T00:51:05.070Z,4.07
2022-11-24T00:54:06.474Z,4.07
2022-11-24T00:57:07.841Z,4.08
2022-11-24T01:00:09.607Z,4.10
2022-11-24T01:03:12.635Z,4.09
2022-11-24T01:06:17.075Z,4.10
2022-11-24T01:09:18.425Z,4.09
2022-11-24T01:12:19.868Z,4.08
2022-11-24T01:15:21.253Z,4.08
2022-11-24T01:18:22.596Z,4.09
2022-11-24T01:21:24.508Z,4.09
2022-11-24T01:24:25.852Z,4.09
2022-11-24T01:27:27.249Z,4.09
2022-11-24T01:30:28.648Z,4.08
2022-11-24T01:33:30.209Z,4.08
2022-11-24T01:36:31.630Z,4.07
2022-11-24T01:39:32.969Z,4.08
2022-11-24T01:42:46.743Z,4.07
2022-11-24T01:45:48.260Z,4.08
2022-11-24T01:49:08.301Z,4.08
2022-11-24T01:52:18.422Z,4.05
2022-11-24T01:55:46.158Z,4.01
2022-11-24T01:58:48.559Z,3.99
2022-11-24T02:01:51.637Z,3.92
2022-11-24T02:04:53.948Z,3.84
2022-11-24T02:07:59.604Z,3.79
2022-11-24T02:11:04.084Z,3.73
2022-11-24T02:14:07.457Z,3.70
2022-11-24T02:17:09.574Z,3.54
2022-11-24T02:20:13.043Z,3.55
2022-11-24T02:23:29.579Z,3.40
2022-11-24T02:26:33.858Z,3.46
2022-11-24T02:29:35.232Z,3.45
2022-11-24T02:32:40.026Z,3.47
2022-11-24T02:35:42.342Z,3.45
2022-11-24T02:38:43.694Z,3.41
2022-11-24T02:41:58.887Z,3.38
2022-11-24T02:45:01.155Z,3.34
2022-11-24T02:48:02.512Z,3.33
2022-11-24T02:51:04.032Z,3.30
2022-11-24T02:54:05.405Z,3.27
2022-11-24T02:57:06.752Z,3.19
2022-11-24T03:00:08.965Z,3.19
2022-11-24T03:03:10.397Z,3.23
2022-11-24T03:06:11.912Z,3.30
2022-11-24T03:09:13.352Z,3.33
2022-11-24T03:12:14.781Z,3.33
2022-11-24T03:15:16.189Z,3.35
2022-11-24T03:18:17.546Z,3.34
2022-11-24T03:21:19.305Z,3.36
2022-11-24T03:24:20.761Z,3.39
2022-11-24T03:27:22.087Z,3.44
2022-11-24T03:30:23.490Z,3.46
2022-11-24T03:33:24.838Z,3.48
2022-11-24T03:36:26.210Z,3.51
2022-11-24T03:39:27.558Z,3.53
2022-11-24T03:42:28.883Z,3.55
2022-11-24T03:45:45.547Z,3.54
2022-11-24T03:48:47.797Z,3.57
2022-11-24T03:51:49.728Z,3.60
2022-11-24T03:54:51.099Z,3.60
2022-11-24T03:57:52.469Z,3.65
2022-11-24T04:00:54.607Z,3.72
2022-11-24T04:03:55.948Z,3.74
2022-11-24T04:06:57.304Z,3.79
2022-11-24T04:09:58.641Z,3.82
2022-11-24T04:12:59.984Z,3.87
2022-11-24T04:16:05.651Z,3.92
2022-11-24T04:19:07.568Z,3.98
2022-11-24T04:22:08.941Z,4.03
2022-11-24T04:25:10.649Z,4.10
2022-11-24T04:28:11.990Z,4.14
2022-11-24T04:31:13.461Z,4.18
2022-11-24T04:34:14.974Z,4.23
2022-11-24T04:37:16.342Z,4.28
2022-11-24T04:40:17.763Z,4.32
2022-11-24T04:43:19.165Z,4.36
2022-11-24T04:46:20.566Z,4.37
2022-11-24T04:49:21.946Z,4.41
2022-11-24T04:52:24.700Z,4.42
2022-11-24T04:55:26.110Z,4.40
2022-11-24T04:58:27.558Z,4.41
2022-11-24T05:01:28.982Z,4.41
2022-11-24T05:04:30.413Z,4.41
2022-11-24T05:07:32.374Z,4.41
2022-11-24T05:10:34.259Z,4.42
2022-11-24T05:13:35.591Z,4.43
2022-11-24T05:16:36.969Z,4.45
2022-11-24T05:19:38.372Z,4.44
2022-11-24T05:22:39.773Z,4.46
2022-11-24T05:25:47.252Z,4.47
2022-11-24T05:28:49.050Z,4.46
2022-11-24T05:31:50.441Z,4.38
2022-11-24T05:34:51.780Z,4.29
2022-11-24T05:37:53.221Z,4.21
2022-11-24T05:40:54.584Z,4.19
2022-11-24T05:43:55.921Z,4.16
2022-11-24T05:46:57.328Z,4.07
2022-11-24T05:49:58.692Z,4.03
2022-11-24T05:53:05.121Z,3.94
2022-11-24T05:56:06.896Z,3.87
2022-11-24T05:59:09.964Z,3.80
2022-11-24T06:02:11.762Z,3.62
2022-11-24T06:05:13.197Z,3.64
2022-11-24T06:08:15.013Z,3.65
2022-11-24T06:11:16.361Z,3.63
2022-11-24T06:14:17.724Z,3.58
2022-11-24T06:17:19.078Z,3.51
2022-11-24T06:20:20.489Z,3.48
2022-11-24T06:23:21.860Z,3.45
2022-11-24T06:26:23.289Z,3.44
2022-11-24T06:29:24.651Z,3.39
2022-11-24T06:32:26.029Z,3.36
2022-11-24T06:35:27.498Z,3.37
2022-11-24T06:38:29.259Z,3.38
2022-11-24T06:41:30.655Z,3.38
2022-11-24T06:44:32.320Z,3.35
2022-11-24T06:47:34.039Z,3.39
2022-11-24T06:50:35.480Z,3.43
2022-11-24T06:53:38.438Z,3.41
2022-11-24T06:56:39.868Z,3.42
2022-11-24T06:59:41.199Z,3.43
2022-11-24T07:02:45.917Z,3.44
2022-11-24T07:05:47.708Z,3.43
2022-11-24T07:08:49.643Z,3.41
2022-11-24T07:11:51.005Z,3.41
2022-11-24T07:14:52.364Z,3.43
2022-11-24T07:17:53.680Z,3.46
2022-11-24T07:20:55.436Z,3.46
2022-11-24T07:23:57.719Z,3.50
2022-11-24T07:26:59.060Z,3.53
2022-11-24T07:30:00.410Z,3.60
2022-11-24T07:33:03.038Z,3.66
2022-11-24T07:36:06.564Z,3.70
2022-11-24T07:39:07.892Z,3.70
2022-11-24T07:42:09.226Z,3.67
2022-11-24T07:45:10.837Z,3.63
2022-11-24T07:48:12.193Z,3.63
2022-11-24T07:51:13.539Z,3.61
2022-11-24T07:54:14.870Z,3.67
2022-11-24T07:57:16.204Z,3.77
2022-11-24T08:00:17.939Z,3.85
2022-11-24T08:03:19.307Z,3.99
2022-11-24T08:06:27.731Z,4.11
2022-11-24T08:09:33.915Z,4.19
2022-11-24T08:12:35.280Z,4.23
2022-11-24T08:15:36.639Z,4.28
2022-11-24T08:18:39.003Z,4.32
2022-11-24T08:21:40.384Z,4.35
2022-11-24T08:24:41.730Z,4.40
2022-11-24T08:27:43.076Z,4.48
2022-11-24T08:30:44.459Z,4.56
2022-11-24T08:33:46.548Z,4.65
2022-11-24T08:36:47.896Z,4.71
2022-11-24T08:39:49.279Z,4.76
2022-11-24T08:42:50.629Z,4.83
2022-11-24T08:45:52.084Z,4.90
2022-11-24T08:48:54.610Z,4.99
2022-11-24T08:51:57.812Z,5.08
2022-11-24T08:54:59.145Z,5.17
2022-11-24T08:58:00.506Z,5.26
2022-11-24T09:01:12.701Z,5.32
2022-11-24T09:04:14.148Z,5.39
2022-11-24T09:07:15.592Z,5.44
2022-11-24T09:10:17.379Z,5.50
2022-11-24T09:13:18.750Z,5.56
2022-11-24T09:16:23.169Z,5.61
2022-11-24T09:19:24.628Z,5.69
2022-11-24T09:22:25.933Z,5.77
2022-11-24T09:25:27.264Z,5.83
2022-11-24T09:28:28.593Z,5.90
2022-11-24T09:31:32.590Z,5.94
2022-11-24T09:34:34.042Z,6.00
2022-11-24T09:37:35.389Z,6.03
2022-11-24T09:40:36.757Z,6.12
2022-11-24T09:43:46.785Z,6.43
2022-11-24T09:47:13.261Z,6.76
2022-11-24T09:50:25.114Z,7.07
2022-11-24T09:54:04.986Z,7.34
2022-11-24T09:57:07.197Z,7.42
2022-11-24T10:00:15.126Z,7.63
2022-11-24T10:03:31.695Z,7.70
2022-11-24T10:06:44.211Z,7.47
2022-11-24T10:09:57.343Z,7.33
2022-11-24T10:13:20.879Z,7.23
2022-11-24T10:16:51.505Z,7.16
2022-11-24T10:20:09.264Z,7.31
2022-11-24T10:23:29.188Z,7.77
2022-11-24T10:26:47.275Z,8.09
2022-11-24T10:29:51.964Z,8.25
2022-11-24T10:33:01.336Z,8.22
2022-11-24T10:36:19.015Z,8.29
2022-11-24T10:39:52.882Z,8.39
2022-11-24T10:42:57.245Z,8.42
2022-11-24T10:46:10.877Z,8.41
2022-11-24T10:49:21.729Z,8.40
2022-11-24T10:52:24.920Z,8.47
2022-11-24T10:55:26.317Z,8.41
2022-11-24T10:58:38.431Z,8.44
2022-11-24T11:01:40.088Z,8.35
2022-11-24T11:04:41.433Z,8.35
2022-11-24T11:07:42.848Z,8.41
2022-11-24T11:10:47.059Z,8.39
2022-11-24T11:13:49.573Z,8.35
2022-11-24T11:16:53.753Z,8.37
2022-11-24T11:20:02.921Z,8.31
2022-11-24T11:23:16.220Z,8.25
2022-11-24T11:26:26.517Z,8.18
2022-11-24T11:36:22.411Z,8.27
2022-11-24T11:39:28.992Z,8.19
2022-11-24T11:43:03.868Z,8.07
2022-11-24T11:46:11.349Z,8.07
2022-11-24T11:49:13.746Z,8.13
2022-11-24T11:52:37.003Z,8.31
2022-11-24T11:55:53.486Z,8.48
2022-11-24T11:59:27.331Z,8.60
2022-11-24T12:02:28.750Z,8.73
2022-11-24T12:05:43.336Z,8.65
2022-11-24T12:09:21.639Z,8.60
2022-11-24T12:12:55.411Z,8.56
2022-11-24T12:16:05.887Z,8.59
2022-11-24T12:19:34.186Z,8.69
2022-11-24T12:22:53.712Z,8.90
2022-11-24T12:26:09.062Z,9.10
2022-11-24T12:29:43.609Z,8.98
2022-11-24T12:32:47.667Z,8.97
2022-11-24T12:35:53.555Z,9.08
2022-11-24T12:39:05.317Z,9.09
2022-11-24T12:42:19.926Z,8.91
2022-11-24T12:45:39.241Z,8.81
2022-11-24T12:49:01.309Z,8.73
2022-11-24T12:52:23.901Z,8.57
2022-11-24T12:55:27.618Z,8.61
2022-11-24T12:58:39.649Z,8.67
2022-11-24T13:01:53.464Z,8.66
2022-11-24T13:05:12.841Z,8.58
2022-11-24T13:08:14.922Z,8.57
2022-11-24T13:11:22.119Z,8.54
2022-11-24T13:14:30.148Z,8.55
2022-11-24T13:17:43.527Z,8.57
2022-11-24T13:20:54.649Z,8.51
2022-11-24T13:24:21.414Z,8.48
2022-11-24T13:27:28.171Z,8.47
2022-11-24T13:30:35.405Z,8.47
2022-11-24T13:33:37.518Z,8.46
2022-11-24T13:36:52.452Z,8.47
2022-11-24T13:39:57.546Z,8.50
2022-11-24T13:42:58.856Z,8.51
2022-11-24T13:46:00.195Z,8.52
2022-11-24T13:49:01.503Z,8.48
2022-11-24T13:52:40.201Z,8.44
2022-11-24T13:56:19.951Z,8.41
2022-11-24T13:59:33.688Z,8.36
2022-11-24T14:02:35.172Z,8.33
2022-11-24T14:05:39.271Z,8.33
2022-11-24T14:08:40.724Z,8.32
2022-11-24T14:11:42.315Z,8.33
2022-11-24T14:14:46.019Z,8.30
2022-11-24T14:17:47.361Z,8.23
2022-11-24T14:20:48.802Z,8.20
2022-11-24T14:24:08.963Z,8.18
2022-11-24T14:27:17.469Z,8.17
2022-11-24T14:30:22.293Z,8.17
2022-11-24T14:33:23.660Z,8.16
2022-11-24T14:36:25.010Z,8.15
2022-11-24T14:39:27.554Z,8.11
2022-11-24T14:42:28.988Z,8.07
2022-11-24T14:45:37.493Z,8.06
2022-11-24T14:48:47.713Z,8.02
2022-11-24T14:51:58.187Z,8.00
2022-11-24T14:55:17.325Z,7.97
2022-11-24T14:58:31.689Z,7.95
2022-11-24T15:01:34.475Z,7.95
2022-11-24T15:05:02.577Z,7.88
2022-11-24T15:08:04.968Z,7.90
2022-11-24T15:11:07.423Z,7.89
2022-11-24T15:14:31.563Z,7.82
2022-11-24T15:17:33.497Z,7.83
2022-11-24T15:20:46.055Z,7.82
2022-11-24T15:24:14.821Z,7.72
2022-11-24T15:27:16.255Z,7.71
2022-11-24T15:30:17.710Z,7.67
2022-11-24T15:33:19.926Z,7.60
2022-11-24T15:36:21.317Z,7.49
2022-11-24T15:39:22.675Z,7.41
2022-11-24T15:42:24.016Z,7.33
2022-11-24T15:45:26.176Z,7.24
2022-11-24T15:48:28.615Z,7.09
2022-11-24T15:51:30.472Z,6.92
2022-11-24T15:54:32.098Z,6.80
2022-11-24T15:57:34.088Z,6.68
2022-11-24T16:00:35.448Z,6.56
2022-11-24T16:03:52.194Z,6.43
2022-11-24T16:06:53.532Z,6.34
2022-11-24T16:09:54.869Z,6.23
2022-11-24T16:12:56.182Z,6.14
2022-11-24T16:15:57.600Z,6.09
2022-11-24T16:18:58.965Z,6.04
2022-11-24T16:22:00.314Z,6.00
2022-11-24T16:25:01.650Z,5.94
2022-11-24T16:28:03.054Z,5.87
2022-11-24T16:31:04.493Z,5.80
2022-11-24T16:34:05.905Z,5.74
2022-11-24T16:37:07.283Z,5.69
2022-11-24T16:40:09.134Z,5.67
2022-11-24T16:43:10.651Z,5.61
2022-11-24T16:46:20.891Z,5.59
2022-11-24T16:49:22.307Z,5.52
2022-11-24T16:52:23.666Z,5.42
2022-11-24T16:55:25.015Z,5.29
2022-11-24T16:58:26.428Z,5.18
2022-11-24T17:01:27.859Z,5.11
2022-11-24T17:04:29.227Z,4.99
2022-11-24T17:07:30.670Z,4.94
2022-11-24T17:10:32.050Z,4.80
2022-11-24T17:13:33.891Z,4.74
2022-11-24T17:16:37.352Z,4.77
2022-11-24T17:19:38.732Z,4.88
2022-11-24T17:22:40.069Z,5.04
2022-11-24T17:25:41.479Z,5.22
2022-11-24T17:28:43.788Z,5.30
2022-11-24T17:31:45.489Z,5.33
2022-11-24T17:34:46.858Z,5.34
2022-11-24T17:37:48.201Z,5.33
2022-11-24T17:40:49.561Z,5.30
2022-11-24T17:43:52.709Z,5.31
2022-11-24T17:46:54.096Z,5.35
2022-11-24T17:49:55.482Z,5.43
2022-11-24T17:52:56.805Z,5.52
2022-11-24T17:55:59.605Z,5.60
2022-11-24T17:59:00.993Z,5.65
2022-11-24T18:02:02.392Z,5.70
2022-11-24T18:05:04.069Z,5.72
2022-11-24T18:08:05.648Z,5.75
2022-11-24T18:11:13.330Z,5.79
2022-11-24T18:14:14.688Z,5.79
2022-11-24T18:17:16.050Z,5.83
2022-11-24T18:20:17.464Z,5.88
2022-11-24T18:23:18.798Z,5.92
2022-11-24T18:26:20.167Z,5.94
2022-11-24T18:29:21.479Z,5.97
2022-11-24T18:32:22.815Z,5.99
2022-11-24T18:35:24.167Z,5.99
2022-11-24T18:38:28.880Z,5.99
2022-11-24T18:41:30.503Z,5.97
2022-11-24T18:44:32.107Z,5.98
2022-11-24T18:47:33.812Z,5.98
2022-11-24T18:50:35.196Z,6.00
2022-11-24T18:53:36.549Z,6.01
2022-11-24T18:56:37.932Z,6.05
2022-11-24T18:59:39.291Z,6.06
2022-11-24T19:02:40.680Z,6.07
2022-11-24T19:05:42.077Z,6.10
2022-11-24T19:08:43.717Z,6.11
2022-11-24T19:11:46.771Z,6.12
2022-11-24T19:14:48.093Z,6.11
2022-11-24T19:17:49.480Z,6.14
2022-11-24T19:20:50.859Z,6.14
2022-11-24T19:23:52.713Z,6.17
2022-11-24T19:26:54.418Z,6.17
2022-11-24T19:29:55.745Z,6.13
2022-11-24T19:32:57.073Z,6.06
2022-11-24T19:36:06.306Z,5.91
2022-11-24T19:39:07.625Z,5.66
2022-11-24T19:42:08.963Z,5.46
2022-11-24T19:45:10.543Z,5.31
2022-11-24T19:48:11.909Z,5.20
2022-11-24T19:51:16.405Z,5.07
2022-11-24T19:54:17.814Z,4.97
2022-11-24T19:57:19.193Z,4.88
2022-11-24T20:00:20.764Z,4.81
2022-11-24T20:03:22.162Z,4.80
2022-11-24T20:06:23.524Z,4.75
2022-11-24T20:09:24.858Z,4.69
2022-11-24T20:12:26.180Z,4.65
2022-11-24T20:15:27.523Z,4.58
2022-11-24T20:18:30.013Z,4.50
2022-11-24T20:21:32.248Z,4.40
2022-11-24T20:24:33.747Z,4.33
2022-11-24T20:27:35.268Z,4.30
2022-11-24T20:30:36.624Z,4.22
2022-11-24T20:33:38.986Z,4.14
2022-11-24T20:36:42.500Z,4.09
2022-11-24T20:39:43.840Z,4.03
2022-11-24T20:42:45.236Z,3.97
2022-11-24T20:45:46.667Z,3.92
2022-11-24T20:48:48.916Z,3.91
2022-11-24T20:51:50.285Z,3.91
2022-11-24T20:54:51.617Z,3.89
2022-11-24T20:57:53.084Z,3.83
2022-11-24T21:00:54.536Z,3.78
2022-11-24T21:03:58.606Z,3.71
2022-11-24T21:06:59.972Z,3.67
2022-11-24T21:10:01.695Z,3.63
2022-11-24T21:13:03.128Z,3.61
2022-11-24T21:16:14.068Z,3.54
2022-11-24T21:19:15.897Z,3.46
2022-11-24T21:22:17.227Z,3.41
2022-11-24T21:25:18.582Z,3.36
2022-11-24T21:28:19.901Z,3.32
2022-11-24T21:31:21.566Z,3.26
2022-11-24T21:34:23.003Z,3.19
2022-11-24T21:37:24.362Z,3.26
2022-11-24T21:40:25.796Z,3.31
2022-11-24T21:43:28.491Z,3.35
2022-11-24T21:46:30.283Z,3.37
2022-11-24T21:49:31.661Z,3.40
2022-11-24T21:52:33.072Z,3.38
2022-11-24T21:55:34.439Z,3.34
2022-11-24T21:58:35.803Z,3.31
2022-11-24T22:01:37.190Z,3.27
2022-11-24T22:04:38.543Z,3.21
2022-11-24T22:07:39.939Z,3.20
2022-11-24T22:10:41.374Z,3.20
2022-11-24T22:13:43.727Z,3.15
2022-11-24T22:16:45.199Z,3.06
2022-11-24T22:19:46.599Z,2.99
2022-11-24T22:22:47.972Z,2.93
2022-11-24T22:25:49.304Z,2.83
2022-11-24T22:28:51.618Z,2.76
2022-11-24T22:31:53.045Z,2.73
2022-11-24T22:34:54.517Z,2.68
2022-11-24T22:37:55.893Z,2.67
2022-11-24T22:41:05.309Z,2.68
2022-11-24T22:44:06.677Z,2.68
2022-11-24T22:47:08.070Z,2.76
2022-11-24T22:50:09.853Z,2.84
2022-11-24T22:53:11.353Z,2.88
2022-11-24T22:56:12.742Z,2.84
2022-11-24T22:59:14.099Z,2.84
2022-11-24T23:02:15.486Z,2.82
2022-11-24T23:05:20.558Z,2.80
2022-11-24T23:08:22.230Z,2.79
2022-11-24T23:11:33.817Z,2.80
2022-11-24T23:14:37.876Z,2.79
2022-11-24T23:17:39.270Z,2.81
2022-11-24T23:20:40.658Z,2.80
2022-11-24T23:23:42.610Z,2.81
2022-11-24T23:26:43.946Z,2.81
2022-11-24T23:29:45.284Z,2.79
2022-11-24T23:32:46.634Z,2.77
2022-11-24T23:35:48.053Z,2.70
2022-11-24T23:38:49.570Z,2.69
2022-11-24T23:41:50.926Z,2.68
2022-11-24T23:44:52.267Z,2.64
2022-11-24T23:47:53.878Z,2.62
2022-11-24T23:50:55.280Z,2.61
2022-11-24T23:53:57.087Z,2.57
2022-11-24T23:56:58.399Z,2.58
2022-11-24T23:59:59.747Z,2.57
